• Join FlightAware (Why Join?)
  • Login
  • US Flag 
11:04AM EST


 

Airport Tracker/Info


-or-


 

Live Flight TrackerFlight Track Log ✈ UAL4380 ✈ 16-Apr-2013 ✈ KIAH - KDAL

Flight Track Log - Related Links

Times and Time Zones

All times are in EDT time to prevent confusion due to time zone crossing. See the UAL4380 flight status page for this flight to view local times or setup timezone preferences in your user account.

Time Position Orientation Groundspeed Altitude Reporting Facility
EDT Latitude Longitude Course Direction KTS MPH feet Rate Location/Type
09:24AM 29.9617 -95.3436 346° North 152 175 800  Level Houston Center
09:24AM 29.9497 -95.3281 132° Southeast 173 199 1,700 1,500 Climbing Houston Center
09:25AM 29.9714 -95.2881 58° Northeast 245 282 2,600 1,964 Climbing Houston Center
09:26AM 30.0503 -95.2983 354° North 283 326 5,300 2,585 Climbing Houston Center
09:27AM 30.2608 -95.4088 350° North  Level FlightAware Approximate
09:27AM 30.1278 -95.3264 343° North 291 335 7,900  Level Houston Center
09:28AM 30.3547 -95.4276 350° North  Level FlightAware Approximate
09:28AM 30.2192 -95.3617 342° North 287 330 10,600  Level Houston Center
09:29AM 30.4476 -95.4517 346° North  Level FlightAware Approximate
09:29AM 30.3056 -95.3950 342° North 320 368 11,700  Level Houston Center
09:30AM 30.4008 -95.4308 342° North 354 407 12,700 1,065 Climbing Houston Center
09:31AM 30.5022 -95.4667 343° North 377 434 13,900 1,171 Climbing Houston Center
09:32AM 30.6092 -95.4928 348° North 390 449 15,100 1,171 Climbing Houston Center
09:33AM 30.7150 -95.5161 349° North 396 456 16,300 1,306 Climbing Houston Center
09:34AM 30.8489 -95.5458 349° North 403 464 17,800 1,317 Climbing Houston Center
09:35AM 30.9633 -95.5722 349° North 412 474 19,000 1,073 Climbing Houston Center
09:36AM 31.0769 -95.5975 349° North 412 474 20,000 484 Climbing Houston Center
09:38AM 31.1944 -95.6422 342° North 442 509 20,000  Level Houston Center
09:39AM 31.3011 -95.7031 334° Northwest 431 496 20,000  Level Houston Center
09:40AM 31.4083 -95.7653 334° Northwest 428 493 20,000  Level Houston Center
09:41AM 31.5189 -95.8300 333° Northwest 435 501 20,000 -49 Level Houston Center
09:42AM 31.6300 -95.8931 334° Northwest 439 505 19,900 -791 Descending Houston Center
09:43AM 31.7561 -95.9669 334° Northwest 429 494 18,300 -1,406 Descending Fort Worth Center
09:44AM 31.8614 -96.0289 333° Northwest 423 487 16,900 -1,450 Descending Fort Worth Center
09:45AM 31.9622 -96.0886 333° Northwest 412 474 15,400 -1,950 Descending Fort Worth Center
09:46AM 32.0714 -96.1533 333° Northwest 412 474 13,000 -1,900 Descending Fort Worth Center
09:47AM 32.1681 -96.2133 332° Northwest 401 461 11,600 -1,200 Descending Fort Worth Center
09:48AM 32.2497 -96.2614 334° Northwest 353 406 10,600 -1,000 Descending Fort Worth Center
09:49AM 32.3211 -96.3047 333° Northwest 306 352 9,600 -800 Descending Fort Worth Center
09:50AM 32.3906 -96.3431 335° Northwest 272 313 9,000 -550 Descending Fort Worth Center
09:51AM 32.4597 -96.3842 333° Northwest 272 313 8,500 -900 Descending Fort Worth Center
09:52AM 32.5311 -96.4278 333° Northwest 272 313 7,200 -1,200 Descending Fort Worth Center
09:53AM 32.6022 -96.4714 333° Northwest 277 319 6,100 -1,100 Descending Fort Worth Center
09:54AM 32.6694 -96.5128 333° Northwest 277 319 5,000 -550 Descending Fort Worth Center
09:55AM 32.7303 -96.5664 323° Northwest 277 319 5,000 -100 Level Fort Worth Center
09:56AM 32.7828 -96.6228 318° Northwest 277 319 4,800 -750 Descending Fort Worth Center
09:57AM 32.8458 -96.6839 321° Northwest 277 319 3,500 -1,036 Descending Fort Worth Center
09:58AM 32.9000 -96.7333 323° Northwest 285 328 2,900 -273 Descending Dallas / Fort Worth TRACON
09:59AM 32.9500 -96.8000 312° West 278 320 3,000 -150 Climbing Dallas / Fort Worth TRACON
10:00AM 32.9500 -96.8833 270° West 247 284 2,600 -476 Descending Dallas / Fort Worth TRACON
10:01AM 32.9167 -96.9333 232° Southwest 189 217 2,000 -545 Descending Dallas / Fort Worth TRACON